Miriam Borchard — V2QE9 — position and weather

sailwx.info

Track history (hours):
 
Tides and Currents Weather Stations Pressure Air Temp Water Temp Dewpoint Dewpoint Depression Visibility Wind Speed Wind Dir Waves Ship Positions

Miriam Borchard

Last reported at 2017-Oct-22 17:30 UTC. Time now 2017-Oct-22 17:48 UTC.
Position N 38°14' E 015°36'.

Length 141 m; draft 7.2 m.

Type: Ship (hazmat cat A). MMSI: 305446000.

Date/timePositionNaut miles runAvg speedWind from/ knotsBaromVisibWave heightAir tempDewpointWater temp
2017-Oct-22 17:30N 38°14' E 015°36'612.7
2017-Oct-22 17:00N 38°19' E 015°41'815.4
2017-Oct-22 16:30N 38°24' E 015°33'815.1
2017-Oct-22 16:00N 38°29' E 015°27'714.7
2017-Oct-22 15:30N 38°35' E 015°21'714.8
2017-Oct-22 15:00N 38°40' E 015°14'815.2
2017-Oct-22 14:30N 38°46' E 015°07'29116.0
2017-Oct-21 20:17N 42°15' E 010°41'515.7
2017-Oct-21 20:00N 42°18' E 010°37'915.8
2017-Oct-21 19:26N 42°24' E 010°28'716.0
2017-Oct-21 19:00N 42°29' E 010°22'1416.3
2017-Oct-21 18:08N 42°39' E 010°08'216.6
2017-Oct-21 18:00N 42°41' E 010°06'816.4
2017-Oct-21 17:30N 42°45' E 009°57'816.3
2017-Oct-21 17:00N 42°49' E 009°47'815.4
2017-Oct-21 16:29N 42°54' E 009°39'816.4
2017-Oct-21 16:00N 43°02' E 009°36'816.1
2017-Oct-21 15:29N 43°10' E 009°32'816.3
2017-Oct-21 15:00N 43°17' E 009°28'1615.8
2017-Oct-21 14:00N 43°32' E 009°21'815.9
2017-Oct-21 13:30N 43°40' E 009°18'816.1
2017-Oct-21 13:00N 43°47' E 009°14'816.3
2017-Oct-21 12:30N 43°55' E 009°10'816.4
2017-Oct-21 12:00N 44°03' E 009°07'816.4
2017-Oct-21 11:30N 44°10' E 009°03'816.5
2017-Oct-21 11:00N 44°18' E 008°59'611.9
2017-Oct-21 10:30N 44°24' E 008°56'2 2.8
2017-Oct-21 09:58N 44°24' E 008°54'0 0.0
2017-Oct-21 09:28N 44°24' E 008°54'0 0.0
2017-Oct-21 08:55N 44°24' E 008°54'0 0.0
2017-Oct-21 08:28N 44°24' E 008°54'0 0.0
2017-Oct-21 07:58N 44°24' E 008°54'0 0.0
2017-Oct-21 07:28N 44°24' E 008°54'0 0.0
2017-Oct-21 06:58N 44°24' E 008°54'0 0.0
2017-Oct-21 06:28N 44°24' E 008°54'0 0.0
2017-Oct-21 05:55N 44°24' E 008°54'0 0.0
2017-Oct-21 05:28N 44°24' E 008°54'0 0.0
2017-Oct-21 04:58N 44°24' E 008°54'0 0.0
2017-Oct-21 04:28N 44°24' E 008°54'0 0.0
2017-Oct-21 04:01N 44°24' E 008°54'2 3.1
2017-Oct-21 03:30N 44°24' E 008°56'3 5.7
2017-Oct-21 03:01N 44°21' E 008°58'4 7.9
2017-Oct-21 02:31N 44°18' E 008°56'612.4
2017-Oct-21 02:00N 44°14' E 008°49'612.6
2017-Oct-21 01:30N 44°10' E 008°43'612.5
2017-Oct-21 01:00N 44°06' E 008°36'612.3
2017-Oct-21 00:30N 44°02' E 008°30'612.4
2017-Oct-21 00:00N 43°57' E 008°23'812.4
2017-Oct-20 23:24N 43°53' E 008°15'5012.3
2017-Oct-20 19:22N 43°20' E 007°24'512.3
2017-Oct-20 18:58N 43°17' E 007°18'612.3
2017-Oct-20 18:28N 43°13' E 007°12'612.6
2017-Oct-20 18:00N 43°09' E 007°06'5912.6
2017-Oct-20 13:21N 42°51' E 005°50'513.4
2017-Oct-20 13:00N 42°52' E 005°44'713.4
2017-Oct-20 12:30N 42°55' E 005°36'713.5
2017-Oct-20 12:00N 42°60' E 005°29'713.1
2017-Oct-20 11:30N 43°04' E 005°22'713.1
2017-Oct-20 11:00N 43°08' E 005°15'612.7
2017-Oct-20 10:30N 43°13' E 005°09'612.7
2017-Oct-20 10:00N 43°18' E 005°14'510.4
2017-Oct-20 09:30N 43°21' E 005°20'0 0.0
2017-Oct-20 00:35N 43°21' E 005°20'0 0.3
2017-Oct-20 00:30N 43°21' E 005°20'3 7.0
2017-Oct-20 00:00N 43°19' E 005°16'510.6
2017-Oct-19 23:30N 43°16' E 005°11'713.3
2017-Oct-19 23:00N 43°10' E 005°07'713.4
2017-Oct-19 22:31N 43°05' E 005°01'713.3
2017-Oct-19 22:00N 43°01' E 004°54'713.3
2017-Oct-19 21:31N 42°56' E 004°48'713.3
2017-Oct-19 21:00N 42°51' E 004°41'713.4
2017-Oct-19 20:29N 42°46' E 004°35'913.6
2017-Oct-19 19:49N 42°39' E 004°27'413.6
2017-Oct-19 19:29N 42°36' E 004°22'713.6
2017-Oct-19 19:00N 42°31' E 004°16'713.8
2017-Oct-19 18:30N 42°26' E 004°10'713.8
2017-Oct-19 17:59N 42°21' E 004°03'714.2
2017-Oct-19 17:30N 42°16' E 003°56'98 5.0
2017-Oct-18 21:55N 41°19' E 002°10'8 1.4
2017-Oct-18 16:22N 41°11' E 002°07'513.3
2017-Oct-18 15:59N 41°06' E 002°04'713.6
2017-Oct-18 15:29N 41°00' E 002°00'19813.6
2017-Oct-18 00:55N 38°06' W 000°02'1917.1
2017-Oct-17 23:47N 37°50' W 000°16'717.1
2017-Oct-17 23:24N 37°45' W 000°20'717.1
2017-Oct-17 23:00N 37°39' W 000°25'817.0
2017-Oct-17 22:30N 37°32' W 000°31'1717.4
2017-Oct-17 21:32N 37°21' W 000°47'117.7
2017-Oct-17 21:30N 37°21' W 000°48'917.5
2017-Oct-17 21:00N 37°15' W 000°56'1117.2
2017-Oct-17 20:23N 37°08' W 001°06'20716.7
2017-Oct-17 07:58N 36°01' W 005°10'817.7
2017-Oct-17 07:30N 35°59' W 005°20'918.2
2017-Oct-17 07:00N 35°57' W 005°31'67 1.3
2017-Oct-15 04:46N 35°10' W 006°30'415.5
2017-Oct-15 04:30N 35°13' W 006°27'815.4
2017-Oct-15 04:00N 35°20' W 006°22'815.5
2017-Oct-15 03:30N 35°26' W 006°17'3315.4
2017-Oct-15 01:23N 35°53' W 005°53'615.9
2017-Oct-15 01:00N 35°56' W 005°47'1015.2
2017-Oct-15 00:23N 35°57' W 005°35'616.2
2017-Oct-15 00:00N 35°59' W 005°28'815.5
2017-Oct-14 23:30N 36°01' W 005°19'815.6
2017-Oct-14 23:00N 36°03' W 005°10'20915.6
2017-Oct-14 09:39N 37°12' W 001°04'317.4
2017-Oct-14 09:29N 37°14' W 001°02'817.2
2017-Oct-14 09:00N 37°20' W 000°54'917.2
2017-Oct-14 08:30N 37°25' W 000°45'817.1
2017-Oct-14 08:00N 37°31' W 000°38'917.2
2017-Oct-14 07:30N 37°38' W 000°31'917.4
2017-Oct-14 07:00N 37°45' W 000°25'1717.2
2017-Oct-14 06:00N 37°60' W 000°13'917.5
2017-Oct-14 05:30N 38°07' W 000°07'1217.6
2017-Oct-14 04:48N 38°17' E 000°01'517.4
2017-Oct-14 04:30N 38°22' E 000°05'2617.1
2017-Oct-14 02:58N 38°44' E 000°23'15216.9
2017-Oct-13 18:00N 40°57' E 001°57'817.1
2017-Oct-13 17:30N 41°05' E 002°02'55 3.2
2017-Oct-13 00:20N 41°39' E 002°60'613.4
2017-Oct-12 23:53N 41°42' E 003°07'513.1
2017-Oct-12 23:30N 41°45' E 003°12'2513.1
2017-Oct-12 21:33N 42°02' E 003°38'113.8
2017-Oct-12 21:30N 42°02' E 003°39'713.5
2017-Oct-12 21:00N 42°07' E 003°45'713.5
2017-Oct-12 20:30N 42°12' E 003°51'713.3
2017-Oct-12 20:00N 42°17' E 003°58'713.4
2017-Oct-12 19:30N 42°22' E 004°04'713.4
2017-Oct-12 19:00N 42°26' E 004°10'713.6
2017-Oct-12 18:30N 42°31' E 004°17'713.4
2017-Oct-12 18:00N 42°36' E 004°23'714.3
2017-Oct-12 17:30N 42°41' E 004°30'  
Track history (hours):
 
Tides and Currents Weather Stations Pressure Air Temp Water Temp Dewpoint Dewpoint Depression Visibility Wind Speed Wind Dir Waves Ship Positions

Miriam Borchard

Last reported at 2017-Oct-22 17:30 UTC. Time now 2017-Oct-22 17:48 UTC.
Position N 38°14' E 015°36'.

Length 141 m; draft 7.2 m.

Type: Ship (hazmat cat A). MMSI: 305446000.

Date/timePositionNaut miles runAvg speedWind from/ knotsBaromVisibWave heightAir tempDewpointWater temp
2017-Oct-22 17:30N 38°14' E 015°36'612.7
2017-Oct-22 17:00N 38°19' E 015°41'815.4
2017-Oct-22 16:30N 38°24' E 015°33'815.1
2017-Oct-22 16:00N 38°29' E 015°27'714.7
2017-Oct-22 15:30N 38°35' E 015°21'714.8
2017-Oct-22 15:00N 38°40' E 015°14'815.2
2017-Oct-22 14:30N 38°46' E 015°07'29116.0
2017-Oct-21 20:17N 42°15' E 010°41'515.7
2017-Oct-21 20:00N 42°18' E 010°37'915.8
2017-Oct-21 19:26N 42°24' E 010°28'716.0
2017-Oct-21 19:00N 42°29' E 010°22'1416.3
2017-Oct-21 18:08N 42°39' E 010°08'216.6
2017-Oct-21 18:00N 42°41' E 010°06'816.4
2017-Oct-21 17:30N 42°45' E 009°57'816.3
2017-Oct-21 17:00N 42°49' E 009°47'815.4
2017-Oct-21 16:29N 42°54' E 009°39'816.4
2017-Oct-21 16:00N 43°02' E 009°36'816.1
2017-Oct-21 15:29N 43°10' E 009°32'816.3
2017-Oct-21 15:00N 43°17' E 009°28'1615.8
2017-Oct-21 14:00N 43°32' E 009°21'815.9
2017-Oct-21 13:30N 43°40' E 009°18'816.1
2017-Oct-21 13:00N 43°47' E 009°14'816.3
2017-Oct-21 12:30N 43°55' E 009°10'816.4
2017-Oct-21 12:00N 44°03' E 009°07'816.4
2017-Oct-21 11:30N 44°10' E 009°03'816.5
2017-Oct-21 11:00N 44°18' E 008°59'611.9
2017-Oct-21 10:30N 44°24' E 008°56'2 2.8
2017-Oct-21 09:58N 44°24' E 008°54'0 0.0
2017-Oct-21 09:28N 44°24' E 008°54'0 0.0
2017-Oct-21 08:55N 44°24' E 008°54'0 0.0
2017-Oct-21 08:28N 44°24' E 008°54'0 0.0
2017-Oct-21 07:58N 44°24' E 008°54'0 0.0
2017-Oct-21 07:28N 44°24' E 008°54'0 0.0
2017-Oct-21 06:58N 44°24' E 008°54'0 0.0
2017-Oct-21 06:28N 44°24' E 008°54'0 0.0
2017-Oct-21 05:55N 44°24' E 008°54'0 0.0
2017-Oct-21 05:28N 44°24' E 008°54'0 0.0
2017-Oct-21 04:58N 44°24' E 008°54'0 0.0
2017-Oct-21 04:28N 44°24' E 008°54'0 0.0
2017-Oct-21 04:01N 44°24' E 008°54'2 3.1
2017-Oct-21 03:30N 44°24' E 008°56'3 5.7
2017-Oct-21 03:01N 44°21' E 008°58'4 7.9
2017-Oct-21 02:31N 44°18' E 008°56'612.4
2017-Oct-21 02:00N 44°14' E 008°49'612.6
2017-Oct-21 01:30N 44°10' E 008°43'612.5
2017-Oct-21 01:00N 44°06' E 008°36'612.3
2017-Oct-21 00:30N 44°02' E 008°30'612.4
2017-Oct-21 00:00N 43°57' E 008°23'812.4
2017-Oct-20 23:24N 43°53' E 008°15'5012.3
2017-Oct-20 19:22N 43°20' E 007°24'512.3
2017-Oct-20 18:58N 43°17' E 007°18'612.3
2017-Oct-20 18:28N 43°13' E 007°12'612.6
2017-Oct-20 18:00N 43°09' E 007°06'5912.6
2017-Oct-20 13:21N 42°51' E 005°50'513.4
2017-Oct-20 13:00N 42°52' E 005°44'713.4
2017-Oct-20 12:30N 42°55' E 005°36'713.5
2017-Oct-20 12:00N 42°60' E 005°29'713.1
2017-Oct-20 11:30N 43°04' E 005°22'713.1
2017-Oct-20 11:00N 43°08' E 005°15'612.7
2017-Oct-20 10:30N 43°13' E 005°09'612.7
2017-Oct-20 10:00N 43°18' E 005°14'510.4
2017-Oct-20 09:30N 43°21' E 005°20'0 0.0
2017-Oct-20 00:35N 43°21' E 005°20'0 0.3
2017-Oct-20 00:30N 43°21' E 005°20'3 7.0
2017-Oct-20 00:00N 43°19' E 005°16'510.6
2017-Oct-19 23:30N 43°16' E 005°11'713.3
2017-Oct-19 23:00N 43°10' E 005°07'713.4
2017-Oct-19 22:31N 43°05' E 005°01'713.3
2017-Oct-19 22:00N 43°01' E 004°54'713.3
2017-Oct-19 21:31N 42°56' E 004°48'713.3
2017-Oct-19 21:00N 42°51' E 004°41'713.4
2017-Oct-19 20:29N 42°46' E 004°35'913.6
2017-Oct-19 19:49N 42°39' E 004°27'413.6
2017-Oct-19 19:29N 42°36' E 004°22'713.6
2017-Oct-19 19:00N 42°31' E 004°16'713.8
2017-Oct-19 18:30N 42°26' E 004°10'713.8
2017-Oct-19 17:59N 42°21' E 004°03'714.2
2017-Oct-19 17:30N 42°16' E 003°56'98 5.0
2017-Oct-18 21:55N 41°19' E 002°10'8 1.4
2017-Oct-18 16:22N 41°11' E 002°07'513.3
2017-Oct-18 15:59N 41°06' E 002°04'713.6
2017-Oct-18 15:29N 41°00' E 002°00'19813.6
2017-Oct-18 00:55N 38°06' W 000°02'1917.1
2017-Oct-17 23:47N 37°50' W 000°16'717.1
2017-Oct-17 23:24N 37°45' W 000°20'717.1
2017-Oct-17 23:00N 37°39' W 000°25'817.0
2017-Oct-17 22:30N 37°32' W 000°31'1717.4
2017-Oct-17 21:32N 37°21' W 000°47'117.7
2017-Oct-17 21:30N 37°21' W 000°48'917.5
2017-Oct-17 21:00N 37°15' W 000°56'1117.2
2017-Oct-17 20:23N 37°08' W 001°06'20716.7
2017-Oct-17 07:58N 36°01' W 005°10'817.7
2017-Oct-17 07:30N 35°59' W 005°20'918.2
2017-Oct-17 07:00N 35°57' W 005°31'67 1.3
2017-Oct-15 04:46N 35°10' W 006°30'415.5
2017-Oct-15 04:30N 35°13' W 006°27'815.4
2017-Oct-15 04:00N 35°20' W 006°22'815.5
2017-Oct-15 03:30N 35°26' W 006°17'3315.4
2017-Oct-15 01:23N 35°53' W 005°53'615.9
2017-Oct-15 01:00N 35°56' W 005°47'1015.2
2017-Oct-15 00:23N 35°57' W 005°35'616.2
2017-Oct-15 00:00N 35°59' W 005°28'815.5
2017-Oct-14 23:30N 36°01' W 005°19'815.6
2017-Oct-14 23:00N 36°03' W 005°10'20915.6
2017-Oct-14 09:39N 37°12' W 001°04'317.4
2017-Oct-14 09:29N 37°14' W 001°02'817.2
2017-Oct-14 09:00N 37°20' W 000°54'917.2
2017-Oct-14 08:30N 37°25' W 000°45'817.1
2017-Oct-14 08:00N 37°31' W 000°38'917.2
2017-Oct-14 07:30N 37°38' W 000°31'917.4
2017-Oct-14 07:00N 37°45' W 000°25'1717.2
2017-Oct-14 06:00N 37°60' W 000°13'917.5
2017-Oct-14 05:30N 38°07' W 000°07'1217.6
2017-Oct-14 04:48N 38°17' E 000°01'517.4
2017-Oct-14 04:30N 38°22' E 000°05'2617.1
2017-Oct-14 02:58N 38°44' E 000°23'15216.9
2017-Oct-13 18:00N 40°57' E 001°57'817.1
2017-Oct-13 17:30N 41°05' E 002°02'55 3.2
2017-Oct-13 00:20N 41°39' E 002°60'613.4
2017-Oct-12 23:53N 41°42' E 003°07'513.1
2017-Oct-12 23:30N 41°45' E 003°12'2513.1
2017-Oct-12 21:33N 42°02' E 003°38'113.8
2017-Oct-12 21:30N 42°02' E 003°39'713.5
2017-Oct-12 21:00N 42°07' E 003°45'713.5
2017-Oct-12 20:30N 42°12' E 003°51'713.3
2017-Oct-12 20:00N 42°17' E 003°58'713.4
2017-Oct-12 19:30N 42°22' E 004°04'713.4
2017-Oct-12 19:00N 42°26' E 004°10'713.6
2017-Oct-12 18:30N 42°31' E 004°17'713.4
2017-Oct-12 18:00N 42°36' E 004°23'714.3
2017-Oct-12 17:30N 42°41' E 004°30'  

Dump ship's entire track history